Latest Weather Observations for Albion Park

IDN60801

Issued at 11:05 pm EST Thursday 31 July 2014 (issued every 30 minutes, with the page automatically refreshed every 10 minutes)

About weather observations | Map of weather stations | Latest weather observations for NSW | Other Formats
Station Details ID: 068241 Name: WOLLONGONG AIRPORT Lat: -34.56 Lon: 150.79 Height: 8.0 m
Data from the previous 72 hours. | See also: Recent months at Albion Park
Date/Time
EST
Temp
°C
App
Temp
°C
Dew
Point
Rel
Hum
%
Delta-T
°C
Wind Press
QNH
hPa
Press
MSL
hPa
Rain
since 9 am
mm
Dir
 
Spd
km/h
Gust
km/h
Spd
kts
Gust
kts
31/11:00pm 17.1 12.2 1.9 36 6.8 NE 17 22 9 12 1004.5 1004.5 0.0
31/10:30pm 17.2 12.6 1.6 35 7.0 NE 15 19 8 10 1004.6 - 0.0
31/10:00pm 17.6 13.3 1.2 33 7.3 NNE 13 17 7 9 1004.6 1004.6 0.0
31/09:30pm 19.2 14.4 0.3 28 8.3 N 15 24 8 13 1004.6 - 0.0
31/09:00pm 19.4 13.9 0.4 28 8.4 N 19 26 10 14 1004.3 1004.3 0.0
31/08:30pm 19.9 13.7 -0.1 26 8.8 N 22 37 12 20 1004.3 - 0.0
31/08:00pm 20.0 14.3 0.5 27 8.7 N 20 32 11 17 1004.3 1004.3 0.0
31/07:30pm 20.1 14.6 0.5 27 8.7 N 19 28 10 15 1004.5 - 0.0
31/07:00pm 20.4 15.2 0.3 26 9.0 N 17 28 9 15 1004.5 1004.5 0.0
31/06:30pm 20.9 15.1 0.2 25 9.2 N 20 35 11 19 1004.2 - 0.0
31/06:00pm 21.7 16.5 0.3 24 9.7 N 17 28 9 15 1004.3 1004.3 0.0
31/05:35pm 22.5 15.2 -0.3 22 10.2 N 28 50 15 27 1004.2 - 0.0
31/05:30pm 22.4 16.6 -0.3 22 10.2 N 20 50 11 27 1004.1 - 0.0
31/05:00pm 22.7 16.1 -0.7 21 10.5 N 24 50 13 27 1004.1 1004.1 0.0
31/04:56pm 23.1 15.7 -0.4 21 10.6 N 28 50 15 27 1004.0 - 0.0
31/04:30pm 23.8 16.8 -0.5 20 11.0 N 26 37 14 20 1004.4 - 0.0
31/04:01pm 24.5 16.4 -0.6 19 11.4 NW 32 50 17 27 1004.6 - 0.0
31/04:00pm 24.5 16.1 -1.3 18 11.6 NW 33 50 18 27 1004.4 1004.4 0.0
31/03:35pm 24.9 16.1 -1.0 18 11.7 NNW 35 54 19 29 1004.4 - 0.0
31/03:30pm 25.0 15.8 -1.7 17 11.9 NNW 37 54 20 29 1004.3 - 0.0
31/03:00pm 25.6 16.9 -0.5 18 12.0 NW 35 59 19 32 1004.8 1004.8 0.0
31/02:30pm 25.6 17.8 -0.5 18 11.9 NW 30 50 16 27 1005.2 - 0.0
31/02:03pm 25.6 16.1 -0.5 18 11.9 NNW 39 57 21 31 1005.5 - 0.0
31/02:00pm 25.7 15.2 -1.2 17 12.2 NNW 44 57 24 31 1005.3 1005.3 0.0
31/01:59pm 25.6 14.7 -1.2 17 12.1 NNW 46 57 25 31 1005.2 - 0.0
31/01:43pm 25.6 18.0 0.3 19 11.8 WNW 30 48 16 26 1005.9 - 0.0
31/01:30pm 25.7 17.7 0.4 19 11.8 WNW 32 48 17 26 1006.1 - 0.0
31/01:00pm 25.4 16.8 0.1 19 11.7 WNW 35 50 19 27 1006.7 1006.7 0.0
31/12:53pm 25.3 18.0 0.0 19 11.7 NW 28 46 15 25 1006.8 - 0.0
31/12:30pm 25.1 17.0 1.3 21 11.2 NW 33 48 18 26 1007.5 - 0.0
31/12:19pm 24.7 17.4 0.3 20 11.3 NNW 28 32 15 17 1007.9 - 0.0
31/12:15pm 25.0 16.2 1.2 21 11.2 WNW 37 46 20 25 1008.0 - 0.0
31/12:06pm 24.4 17.1 0.0 20 11.2 NNW 28 50 15 27 1008.1 - 0.0
31/12:00pm 24.8 17.4 1.7 22 11.0 WNW 30 43 16 23 1008.4 1008.4 0.0
31/11:30am 23.5 18.8 2.9 26 9.9 W 17 32 9 17 1009.7 - 0.0
31/11:00am 22.5 17.4 4.1 30 9.0 N 20 33 11 18 1010.5 1010.5 0.0
31/10:30am 21.5 16.0 4.1 32 8.4 N 22 32 12 17 1011.2 - 0.0
31/10:00am 20.9 15.8 4.0 33 8.1 NNW 20 26 11 14 1011.7 1011.7 0.0
31/09:30am 20.5 16.7 3.7 33 8.0 NNW 13 20 7 11 1012.0 - 0.0
31/09:00am 20.1 15.4 3.3 33 7.9 N 17 22 9 12 1012.5 1012.5 0.0
31/08:30am 19.4 16.1 4.7 38 7.1 NW 11 28 6 15 1012.8 - 0.0
31/08:00am 18.4 15.2 4.9 41 6.5 NW 11 15 6 8 1012.8 1012.8 0.0
31/07:30am 17.9 12.0 4.1 40 6.5 NW 24 39 13 21 1012.9 - 0.0
31/07:00am 18.0 8.0 4.2 40 6.5 WNW 46 69 25 37 1012.4 1012.4 0.0
31/06:32am 18.0 10.1 4.6 41 6.4 WNW 35 57 19 31 1012.0 - 0.0
31/06:30am 17.8 10.3 4.4 41 6.4 WNW 33 44 18 24 1012.2 - 0.0
31/06:00am 17.7 10.3 5.0 43 6.1 W 33 46 18 25 1012.2 1012.2 0.0
31/05:30am 17.6 10.3 5.5 45 5.9 WNW 33 56 18 30 1012.2 - 0.0
31/05:14am 17.3 11.0 5.9 47 5.6 WNW 28 46 15 25 1012.3 - 0.0
31/05:00am 17.2 12.1 5.8 47 5.5 WNW 22 32 12 17 1012.5 1012.5 0.0
31/04:30am 17.9 11.8 6.4 47 5.7 NW 28 46 15 25 1012.2 - 0.0
31/04:18am 16.6 11.4 7.3 54 4.6 NW 24 33 13 18 1012.1 - 0.0
31/04:00am 11.5 8.9 7.6 77 1.9 NW 11 20 6 11 1012.6 1012.6 0.0
31/03:30am 7.5 5.6 6.9 96 0.3 S 6 11 3 6 1012.8 - 0.0
31/03:00am 5.2 2.3 4.9 98 0.1 NNE 9 17 5 9 1013.3 1013.3 0.0
31/02:30am 4.2 1.7 3.6 96 0.2 W 6 13 3 7 1013.6 - 0.0
31/02:00am 5.6 3.7 5.0 96 0.3 W 4 9 2 5 1014.0 1014.0 0.0
31/01:30am 6.1 5.1 5.4 95 0.3 CALM 0 0 0 0 1014.3 - 0.0
31/01:00am 6.6 5.6 5.7 94 0.4 CALM 0 0 0 0 1014.7 1014.7 0.0
31/12:30am 7.3 6.4 6.2 93 0.5 CALM 0 0 0 0 1015.0 - 0.0
31/12:00am 7.8 5.7 6.6 92 0.6 W 7 9 4 5 1015.3 1015.3 0.0
 
Date/Time
EST
Temp
°C
App
Temp
°C
Dew
Point
Rel
Hum
%
Delta-T
°C
Wind Press
QNH
hPa
Press
MSL
hPa
Rain
since 9 am
mm
Dir
 
Spd
km/h
Gust
km/h
Spd
kts
Gust
kts
30/11:30pm 7.8 5.8 6.3 90 0.7 W 6 7 3 4 1015.6 - 0.0
30/11:00pm 8.7 7.7 7.2 90 0.7 WSW 2 9 1 5 1015.9 1015.9 0.0
30/10:30pm 9.0 7.4 6.4 84 1.2 WSW 4 7 2 4 1016.0 - 0.0
30/10:00pm 10.8 10.1 7.1 78 1.8 CALM 0 0 0 0 1016.1 1016.1 0.0
30/09:30pm 11.3 9.4 6.6 73 2.2 W 6 11 3 6 1016.4 - 0.0
30/09:00pm 13.1 11.1 6.9 66 3.0 NW 7 9 4 5 1016.3 1016.3 0.0
30/08:30pm 14.7 13.0 7.7 63 3.5 WNW 6 13 3 7 1016.4 - 0.0
30/08:00pm 15.8 14.0 8.1 60 3.9 WNW 7 15 4 8 1016.4 1016.4 0.0
30/07:30pm 16.8 13.8 7.7 55 4.6 NW 13 20 7 11 1016.5 - 0.0
30/07:00pm 17.1 13.8 8.0 55 4.6 NW 15 20 8 11 1016.2 1016.2 0.0
30/06:30pm 17.2 13.7 7.3 52 5.0 WNW 15 22 8 12 1016.2 - 0.0
30/06:00pm 18.0 13.8 7.4 50 5.3 WNW 19 20 10 11 1016.0 1016.0 0.0
30/05:30pm 17.6 14.4 6.8 49 5.4 WSW 13 15 7 8 1015.6 - 0.0
30/05:00pm 19.2 13.2 7.0 45 6.1 WNW 28 41 15 22 1015.0 1015.0 0.0
30/04:30pm 19.9 13.2 7.3 44 6.4 W 32 48 17 26 1014.8 - 0.0
30/04:02pm 20.1 14.1 7.1 43 6.6 W 28 46 15 25 1014.6 - 0.0
30/04:00pm 20.2 14.3 7.6 44 6.5 W 28 41 15 22 1014.7 1014.7 0.0
30/03:30pm 20.6 13.2 6.9 41 7.0 WNW 35 54 19 29 1014.4 - 0.0
30/03:12pm 21.2 14.4 6.7 39 7.4 WNW 32 52 17 28 1014.4 - 0.0
30/03:00pm 22.1 15.8 7.5 39 7.6 WNW 30 44 16 24 1014.2 1014.2 0.0
30/02:30pm 21.8 14.1 6.9 38 7.6 W 37 56 20 30 1014.3 - 0.0
30/02:09pm 21.8 14.1 6.9 38 7.6 WNW 37 57 20 31 1014.3 - 0.0
30/02:00pm 22.3 15.0 7.3 38 7.8 WNW 35 50 19 27 1014.4 1014.4 0.0
30/01:30pm 21.7 13.3 7.2 39 7.5 W 41 59 22 32 1014.5 - 0.0
30/01:25pm 22.1 15.3 7.5 39 7.6 W 33 52 18 28 1014.5 - 0.0
30/01:00pm 22.2 15.4 7.6 39 7.6 W 33 48 18 26 1014.7 1014.7 0.0
30/12:30pm 22.3 14.7 7.7 39 7.6 W 37 50 20 27 1015.0 - 0.0
30/12:00pm 21.5 13.2 7.7 41 7.1 W 41 59 22 32 1015.4 1015.4 0.0
30/11:32am 20.9 14.6 7.5 42 6.9 W 30 48 16 26 1015.9 - 0.0
30/11:30am 21.2 14.4 7.8 42 6.9 W 33 48 18 26 1016.0 - 0.0
30/11:00am 21.8 15.7 8.3 42 7.1 WNW 30 39 16 21 1016.3 1016.3 0.0
30/10:30am 21.0 16.4 8.0 43 6.8 WNW 22 37 12 20 1016.7 - 0.0
30/10:00am 20.3 15.4 8.6 47 6.1 W 24 39 13 21 1016.9 1016.9 0.0
30/09:30am 20.0 16.0 9.0 49 5.8 W 20 39 11 21 1017.0 - 0.0
30/09:00am 19.1 15.5 8.4 50 5.5 W 17 26 9 14 1017.1 1017.1 0.0
30/08:30am 18.4 16.1 7.5 49 5.5 S 9 15 5 8 1016.9 - 0.0
30/08:00am 17.5 14.1 7.8 53 4.9 WNW 15 22 8 12 1016.7 1016.7 0.0
30/07:30am 16.4 14.1 7.3 55 4.5 NW 9 15 5 8 1016.4 - 0.0
30/07:28am 16.2 13.8 7.2 55 4.5 NW 9 11 5 6 1016.3 - 0.0
30/07:12am 16.5 7.7 7.2 54 4.6 W 43 63 23 34 1015.3 - 0.0
30/07:00am 16.4 6.6 7.1 54 4.6 W 48 61 26 33 1014.8 1014.8 0.0
30/06:30am 16.6 4.7 7.0 53 4.8 W 59 78 32 42 1013.9 - 0.0
30/06:00am 16.5 5.1 6.9 53 4.7 W 56 74 30 40 1013.7 1013.7 0.0
30/05:30am 16.4 4.8 6.8 53 4.7 W 57 78 31 42 1013.3 - 0.0
30/05:00am 16.7 6.1 6.8 52 4.9 W 52 70 28 38 1012.9 1012.9 0.0
30/04:32am 16.6 7.7 6.7 52 4.9 W 43 69 23 37 1012.9 - 0.0
30/04:30am 16.5 7.5 6.3 51 5.0 W 43 57 23 31 1013.1 - 0.0
30/04:04am 16.6 7.5 5.9 49 5.2 W 43 63 23 34 1013.2 - 0.0
30/04:00am 16.5 6.8 5.8 49 5.2 W 46 59 25 32 1013.4 1013.4 0.0
30/03:47am 16.8 7.1 5.7 48 5.4 W 46 69 25 37 1013.3 - 0.0
30/03:30am 17.0 6.9 5.6 47 5.5 W 48 59 26 32 1013.2 - 0.0
30/03:09am 17.0 7.1 5.0 45 5.7 W 46 65 25 35 1013.3 - 0.0
30/03:00am 17.0 7.5 5.0 45 5.7 W 44 61 24 33 1013.3 1013.3 0.0
30/02:30am 17.2 9.2 3.8 41 6.2 W 35 52 19 28 1013.9 - 0.0
30/02:00am 17.5 9.9 3.0 38 6.7 W 32 50 17 27 1014.0 1014.0 0.0
30/01:53am 17.7 10.9 3.2 38 6.7 W 28 50 15 27 1014.1 - 0.0
30/01:30am 17.3 10.5 3.2 39 6.5 W 28 37 15 20 1014.3 - 0.0
30/01:18am 17.4 10.7 3.7 40 6.4 W 28 41 15 22 1014.2 - 0.0
30/01:00am 14.5 12.0 4.8 52 4.5 W 7 20 4 11 1014.4 1014.4 0.0
30/12:30am 14.1 11.0 3.8 50 4.7 W 9 17 5 9 1014.7 - 0.0
30/12:00am 14.4 11.2 5.0 53 4.4 W 11 24 6 13 1014.7 1014.7 0.0
 
Date/Time
EST
Temp
°C
App
Temp
°C
Dew
Point
Rel
Hum
%
Delta-T
°C
Wind Press
QNH
hPa
Press
MSL
hPa
Rain
since 9 am
mm
Dir
 
Spd
km/h
Gust
km/h
Spd
kts
Gust
kts
29/11:30pm 13.3 11.3 4.5 55 4.0 SW 4 9 2 5 1014.7 - 0.0
29/11:00pm 15.6 12.7 4.9 49 5.0 ENE 9 20 5 11 1014.6 1014.6 0.0
29/10:30pm 14.0 11.7 4.6 53 4.3 SE 6 13 3 7 1014.6 - 0.0
29/10:00pm 13.9 11.2 3.7 50 4.6 E 7 15 4 8 1014.3 1014.3 0.0
29/09:30pm 13.5 11.4 4.1 53 4.3 S 4 11 2 6 1014.3 - 0.0
29/09:00pm 14.3 11.6 3.5 48 4.9 WNW 7 13 4 7 1014.2 1014.2 0.0
29/08:30pm 16.5 13.5 3.9 43 5.9 N 9 13 5 7 1014.4 - 0.0
29/08:00pm 17.8 13.9 3.3 38 6.7 N 13 17 7 9 1014.4 1014.4 0.0
29/07:30pm 17.2 13.6 3.1 39 6.5 NNW 11 17 6 9 1014.5 - 0.0
29/07:00pm 18.0 14.0 2.7 36 7.0 NW 13 22 7 12 1014.5 1014.5 0.0
29/06:30pm 19.0 14.2 2.8 34 7.5 NNW 17 24 9 13 1014.3 - 0.0
29/06:00pm 18.4 14.6 1.9 33 7.5 N 11 20 6 11 1014.2 1014.2 0.0
29/05:30pm 19.3 13.4 1.8 31 8.0 WNW 22 39 12 21 1013.9 - 0.0
29/05:00pm 19.7 14.4 1.7 30 8.2 WNW 19 30 10 16 1013.5 1013.5 0.0
29/04:30pm 21.4 16.4 1.6 27 9.1 NW 17 24 9 13 1013.0 - 0.0
29/04:00pm 22.1 15.8 1.7 26 9.5 W 24 35 13 19 1013.0 1013.0 0.0
29/03:30pm 22.8 15.8 1.8 25 9.8 W 28 43 15 23 1012.8 - 0.0
29/03:00pm 23.1 14.3 1.4 24 10.1 W 37 61 20 33 1012.5 1012.5 0.0
29/02:33pm 23.4 15.6 1.7 24 10.2 W 32 50 17 27 1012.1 - 0.0
29/02:30pm 23.4 15.4 1.7 24 10.2 WNW 33 50 18 27 1012.0 - 0.0
29/02:00pm 23.1 13.1 0.9 23 10.2 WNW 43 61 23 33 1012.3 1012.3 0.0
29/01:42pm 23.8 15.5 2.0 24 10.3 W 35 54 19 29 1012.6 - 0.0
29/01:30pm 23.5 14.7 1.2 23 10.4 WNW 37 52 20 28 1012.7 - 0.0
29/01:27pm 23.5 14.8 1.8 24 10.2 WNW 37 50 20 27 1012.6 - 0.0
29/01:11pm 23.5 15.7 1.8 24 10.2 W 32 50 17 27 1013.0 - 0.0
29/01:04pm 23.1 14.4 2.0 25 9.9 W 37 50 20 27 1012.9 - 0.0
29/01:00pm 23.4 16.1 2.3 25 10.0 WNW 30 50 16 27 1013.0 1013.0 0.0
29/12:46pm 22.7 13.9 1.1 24 10.0 WNW 37 57 20 31 1013.2 - 0.0
29/12:30pm 22.6 14.3 2.1 26 9.6 W 35 52 19 28 1013.6 - 0.0
29/12:27pm 22.5 14.8 2.1 26 9.6 W 32 52 17 28 1013.8 - 0.0
29/12:00pm 21.0 16.7 5.4 36 7.7 N 17 28 9 15 1014.3 1014.3 0.0
29/11:30am 20.1 15.1 4.6 36 7.5 N 20 30 11 16 1014.7 - 0.0
29/11:00am 18.1 12.9 3.6 38 6.8 N 20 28 11 15 1015.0 1015.0 0.0
29/10:30am 17.6 12.7 3.9 40 6.4 N 19 26 10 14 1015.8 - 0.0
29/10:00am 17.3 13.1 3.6 40 6.4 N 15 20 8 11 1016.5 1016.5 0.0
29/09:30am 16.1 12.4 4.2 45 5.5 NNW 13 20 7 11 1016.8 - 0.0
29/09:00am 14.6 10.8 3.7 48 5.0 NNW 13 17 7 9 1016.9 1016.9 0.0
29/08:30am 14.2 10.3 3.4 48 4.9 NNW 13 19 7 10 1016.9 - 0.0
29/08:00am 13.3 9.8 3.4 51 4.4 NNW 11 13 6 7 1016.9 1016.9 0.0
29/07:30am 14.4 10.7 2.3 44 5.3 WNW 11 15 6 8 1016.8 - 0.0
29/07:00am 14.9 10.8 2.1 42 5.6 W 13 19 7 10 1016.9 1016.9 0.0
29/06:30am 16.2 9.5 1.5 37 6.5 W 26 35 14 19 1016.3 - 0.0
29/06:00am 15.6 9.8 2.4 41 5.9 W 22 28 12 15 1016.0 1016.0 0.0
29/05:30am 15.9 11.4 2.3 40 6.1 W 15 24 8 13 1016.2 - 0.0
29/05:00am 13.9 10.2 4.5 53 4.3 E 13 15 7 8 1015.9 1015.9 0.0
29/04:30am 14.0 10.2 4.0 51 4.6 NE 13 17 7 9 1015.9 - 0.0
29/04:00am 14.5 11.5 3.9 49 4.8 NNE 9 15 5 8 1016.1 1016.1 0.0
29/03:30am 15.0 10.8 3.8 47 5.1 NW 15 22 8 12 1016.1 - 0.0
29/03:00am 15.0 9.1 4.1 48 5.0 W 24 32 13 17 1015.8 1015.8 0.0
29/02:30am 12.9 9.3 5.1 59 3.6 E 13 15 7 8 1015.9 - 0.0
29/02:00am 13.2 10.7 4.6 56 3.9 NE 7 11 4 6 1016.2 1016.2 0.0
29/01:30am 14.1 10.5 4.9 54 4.3 NW 13 26 7 14 1016.3 - 0.0
29/01:00am 13.6 10.0 5.0 56 4.0 NW 13 17 7 9 1016.7 1016.7 0.0
29/12:30am 12.9 10.1 5.1 59 3.6 NW 9 13 5 7 1017.2 - 0.0
29/12:00am 14.3 10.9 5.7 56 4.1 SE 13 22 7 12 1017.6 1017.6 0.0
 
Date/Time
EST
Temp
°C
App
Temp
°C
Dew
Point
Rel
Hum
%
Delta-T
°C
Wind Press
QNH
hPa
Press
MSL
hPa
Rain
since 9 am
mm
Dir
 
Spd
km/h
Gust
km/h
Spd
kts
Gust
kts
28/11:30pm 11.8 7.6 5.9 67 2.8 WNW 17 20 9 11 1017.6 - 0.0

Other Formats:

Comma delimited format used in spreadsheet applications
http://www.bom.gov.au/fwo/IDN60801/IDN60801.95748.axf

JavaScript Object Notation format (JSON) in row-major order
http://www.bom.gov.au/fwo/IDN60801/IDN60801.95748.json